sensor_id;sensor_type;location;lat;lon;timestamp;P1;durP1;ratioP1;P2;durP2;ratioP2
5493;SDS011;2769;49.864;8.656;2023-11-19T00:00:32;7.10;;;6.50;;
5493;SDS011;2769;49.864;8.656;2023-11-19T00:03:20;7.10;;;6.40;;
5493;SDS011;2769;49.864;8.656;2023-11-19T00:06:07;8.03;;;6.20;;
5493;SDS011;2769;49.864;8.656;2023-11-19T00:08:56;7.83;;;6.40;;
5493;SDS011;2769;49.864;8.656;2023-11-19T00:11:42;6.47;;;5.87;;
5493;SDS011;2769;49.864;8.656;2023-11-19T00:14:38;5.57;;;5.07;;
5493;SDS011;2769;49.864;8.656;2023-11-19T00:17:25;7.80;;;5.73;;
5493;SDS011;2769;49.864;8.656;2023-11-19T00:20:14;6.00;;;5.50;;
5493;SDS011;2769;49.864;8.656;2023-11-19T00:23:01;5.20;;;4.80;;
5493;SDS011;2769;49.864;8.656;2023-11-19T00:25:47;5.20;;;4.80;;
5493;SDS011;2769;49.864;8.656;2023-11-19T00:28:34;5.07;;;4.50;;
5493;SDS011;2769;49.864;8.656;2023-11-19T00:31:22;4.77;;;4.30;;
5493;SDS011;2769;49.864;8.656;2023-11-19T00:34:08;5.10;;;4.70;;
5493;SDS011;2769;49.864;8.656;2023-11-19T00:36:57;4.17;;;3.87;;
5493;SDS011;2769;49.864;8.656;2023-11-19T00:39:43;4.07;;;3.80;;
5493;SDS011;2769;49.864;8.656;2023-11-19T00:42:30;4.40;;;4.10;;
5493;SDS011;2769;49.864;8.656;2023-11-19T00:45:17;5.80;;;3.73;;
5493;SDS011;2769;49.864;8.656;2023-11-19T00:48:03;4.30;;;3.83;;
5493;SDS011;2769;49.864;8.656;2023-11-19T00:50:51;4.13;;;3.93;;
5493;SDS011;2769;49.864;8.656;2023-11-19T00:53:39;4.40;;;4.00;;
5493;SDS011;2769;49.864;8.656;2023-11-19T00:56:25;4.90;;;4.33;;
5493;SDS011;2769;49.864;8.656;2023-11-19T00:59:13;5.30;;;4.70;;
5493;SDS011;2769;49.864;8.656;2023-11-19T01:02:00;4.20;;;3.90;;
5493;SDS011;2769;49.864;8.656;2023-11-19T01:04:47;4.37;;;4.07;;
5493;SDS011;2769;49.864;8.656;2023-11-19T01:07:34;4.33;;;4.00;;
5493;SDS011;2769;49.864;8.656;2023-11-19T01:10:22;8.17;;;3.97;;
5493;SDS011;2769;49.864;8.656;2023-11-19T01:13:09;6.07;;;3.97;;
5493;SDS011;2769;49.864;8.656;2023-11-19T01:15:56;4.47;;;4.13;;
5493;SDS011;2769;49.864;8.656;2023-11-19T01:18:43;4.33;;;3.97;;
5493;SDS011;2769;49.864;8.656;2023-11-19T01:21:29;4.17;;;3.87;;
5493;SDS011;2769;49.864;8.656;2023-11-19T01:24:16;4.03;;;3.70;;
5493;SDS011;2769;49.864;8.656;2023-11-19T01:27:05;6.23;;;3.90;;
5493;SDS011;2769;49.864;8.656;2023-11-19T01:29:52;3.20;;;3.00;;
5493;SDS011;2769;49.864;8.656;2023-11-19T01:32:38;3.77;;;3.07;;
5493;SDS011;2769;49.864;8.656;2023-11-19T01:35:25;3.57;;;3.10;;
5493;SDS011;2769;49.864;8.656;2023-11-19T01:38:12;2.77;;;2.67;;
5493;SDS011;2769;49.864;8.656;2023-11-19T01:41:00;2.77;;;2.57;;
5493;SDS011;2769;49.864;8.656;2023-11-19T01:43:49;2.60;;;2.50;;
5493;SDS011;2769;49.864;8.656;2023-11-19T01:46:35;2.50;;;2.40;;
5493;SDS011;2769;49.864;8.656;2023-11-19T01:49:22;3.17;;;2.70;;
5493;SDS011;2769;49.864;8.656;2023-11-19T01:52:09;2.90;;;2.70;;
5493;SDS011;2769;49.864;8.656;2023-11-19T01:54:55;2.30;;;2.20;;
5493;SDS011;2769;49.864;8.656;2023-11-19T01:57:42;2.83;;;2.63;;
5493;SDS011;2769;49.864;8.656;2023-11-19T02:00:30;2.40;;;2.30;;
5493;SDS011;2769;49.864;8.656;2023-11-19T02:03:18;2.10;;;2.00;;
5493;SDS011;2769;49.864;8.656;2023-11-19T02:06:06;2.20;;;2.10;;
5493;SDS011;2769;49.864;8.656;2023-11-19T02:08:57;1.93;;;1.80;;
5493;SDS011;2769;49.864;8.656;2023-11-19T02:11:43;2.63;;;1.83;;
5493;SDS011;2769;49.864;8.656;2023-11-19T02:14:29;2.23;;;2.13;;
5493;SDS011;2769;49.864;8.656;2023-11-19T02:17:26;2.13;;;2.03;;
5493;SDS011;2769;49.864;8.656;2023-11-19T02:20:13;2.27;;;2.20;;
5493;SDS011;2769;49.864;8.656;2023-11-19T02:23:00;2.33;;;2.10;;
5493;SDS011;2769;49.864;8.656;2023-11-19T02:25:47;2.40;;;2.30;;
5493;SDS011;2769;49.864;8.656;2023-11-19T02:28:46;2.10;;;1.70;;
5493;SDS011;2769;49.864;8.656;2023-11-19T02:31:32;2.93;;;1.67;;
5493;SDS011;2769;49.864;8.656;2023-11-19T02:34:20;1.67;;;1.67;;
5493;SDS011;2769;49.864;8.656;2023-11-19T02:37:07;1.80;;;1.70;;
5493;SDS011;2769;49.864;8.656;2023-11-19T02:39:55;1.70;;;1.70;;
5493;SDS011;2769;49.864;8.656;2023-11-19T02:42:41;1.50;;;1.50;;
5493;SDS011;2769;49.864;8.656;2023-11-19T02:45:29;1.50;;;1.40;;
5493;SDS011;2769;49.864;8.656;2023-11-19T02:48:16;1.63;;;1.53;;
5493;SDS011;2769;49.864;8.656;2023-11-19T02:51:03;1.67;;;1.57;;
5493;SDS011;2769;49.864;8.656;2023-11-19T02:53:50;1.60;;;1.50;;
5493;SDS011;2769;49.864;8.656;2023-11-19T02:56:37;1.60;;;1.60;;
5493;SDS011;2769;49.864;8.656;2023-11-19T02:59:28;1.67;;;1.60;;
5493;SDS011;2769;49.864;8.656;2023-11-19T03:02:25;2.00;;;1.90;;
5493;SDS011;2769;49.864;8.656;2023-11-19T03:05:19;1.83;;;1.73;;
5493;SDS011;2769;49.864;8.656;2023-11-19T03:08:06;1.87;;;1.80;;
5493;SDS011;2769;49.864;8.656;2023-11-19T03:10:53;2.17;;;2.00;;
5493;SDS011;2769;49.864;8.656;2023-11-19T03:13:39;1.53;;;1.53;;
5493;SDS011;2769;49.864;8.656;2023-11-19T03:16:25;2.13;;;2.03;;
5493;SDS011;2769;49.864;8.656;2023-11-19T03:19:13;2.17;;;2.07;;
5493;SDS011;2769;49.864;8.656;2023-11-19T03:22:10;2.00;;;1.90;;
5493;SDS011;2769;49.864;8.656;2023-11-19T03:24:57;2.20;;;2.10;;
5493;SDS011;2769;49.864;8.656;2023-11-19T03:27:43;2.33;;;2.10;;
5493;SDS011;2769;49.864;8.656;2023-11-19T03:30:30;1.97;;;1.90;;
5493;SDS011;2769;49.864;8.656;2023-11-19T03:33:18;2.23;;;2.10;;
5493;SDS011;2769;49.864;8.656;2023-11-19T03:36:07;2.33;;;2.23;;
5493;SDS011;2769;49.864;8.656;2023-11-19T03:38:54;2.20;;;2.10;;
5493;SDS011;2769;49.864;8.656;2023-11-19T03:41:41;4.13;;;2.40;;
5493;SDS011;2769;49.864;8.656;2023-11-19T03:44:29;2.60;;;2.50;;
5493;SDS011;2769;49.864;8.656;2023-11-19T03:47:15;2.67;;;2.57;;
5493;SDS011;2769;49.864;8.656;2023-11-19T03:50:02;2.53;;;2.43;;
5493;SDS011;2769;49.864;8.656;2023-11-19T03:52:51;3.40;;;3.10;;
5493;SDS011;2769;49.864;8.656;2023-11-19T03:55:38;3.30;;;3.10;;
5493;SDS011;2769;49.864;8.656;2023-11-19T03:58:24;2.80;;;2.70;;
5493;SDS011;2769;49.864;8.656;2023-11-19T04:01:11;4.00;;;2.83;;
5493;SDS011;2769;49.864;8.656;2023-11-19T04:03:59;2.77;;;2.67;;
5493;SDS011;2769;49.864;8.656;2023-11-19T04:06:46;3.63;;;3.43;;
5493;SDS011;2769;49.864;8.656;2023-11-19T04:09:34;3.50;;;3.20;;
5493;SDS011;2769;49.864;8.656;2023-11-19T04:12:22;3.17;;;3.07;;
5493;SDS011;2769;49.864;8.656;2023-11-19T04:15:09;2.90;;;2.70;;
5493;SDS011;2769;49.864;8.656;2023-11-19T04:17:55;3.40;;;2.97;;
5493;SDS011;2769;49.864;8.656;2023-11-19T04:20:42;3.20;;;3.00;;
5493;SDS011;2769;49.864;8.656;2023-11-19T04:23:28;3.03;;;2.93;;
5493;SDS011;2769;49.864;8.656;2023-11-19T04:26:16;2.80;;;2.60;;
5493;SDS011;2769;49.864;8.656;2023-11-19T04:29:02;2.90;;;2.70;;
5493;SDS011;2769;49.864;8.656;2023-11-19T04:31:49;3.10;;;3.00;;
5493;SDS011;2769;49.864;8.656;2023-11-19T04:34:36;3.53;;;2.87;;
5493;SDS011;2769;49.864;8.656;2023-11-19T04:37:22;3.60;;;3.40;;
5493;SDS011;2769;49.864;8.656;2023-11-19T04:40:09;3.87;;;3.67;;
5493;SDS011;2769;49.864;8.656;2023-11-19T04:42:58;4.10;;;3.80;;
5493;SDS011;2769;49.864;8.656;2023-11-19T04:45:45;3.00;;;2.90;;
5493;SDS011;2769;49.864;8.656;2023-11-19T04:48:31;4.20;;;3.90;;
5493;SDS011;2769;49.864;8.656;2023-11-19T04:51:21;3.60;;;3.40;;
5493;SDS011;2769;49.864;8.656;2023-11-19T04:54:07;4.20;;;3.90;;
5493;SDS011;2769;49.864;8.656;2023-11-19T04:56:54;4.80;;;4.40;;
5493;SDS011;2769;49.864;8.656;2023-11-19T04:59:42;4.90;;;4.50;;
5493;SDS011;2769;49.864;8.656;2023-11-19T05:02:28;4.57;;;4.17;;
5493;SDS011;2769;49.864;8.656;2023-11-19T05:05:15;4.77;;;4.30;;
5493;SDS011;2769;49.864;8.656;2023-11-19T05:08:02;6.13;;;5.13;;
5493;SDS011;2769;49.864;8.656;2023-11-19T05:10:48;7.57;;;5.57;;
5493;SDS011;2769;49.864;8.656;2023-11-19T05:13:34;5.33;;;4.97;;
5493;SDS011;2769;49.864;8.656;2023-11-19T05:16:22;5.67;;;5.17;;
5493;SDS011;2769;49.864;8.656;2023-11-19T05:19:09;5.30;;;4.90;;
5493;SDS011;2769;49.864;8.656;2023-11-19T05:21:56;5.50;;;5.10;;
5493;SDS011;2769;49.864;8.656;2023-11-19T05:24:42;5.10;;;4.67;;
5493;SDS011;2769;49.864;8.656;2023-11-19T05:27:29;5.77;;;5.17;;
5493;SDS011;2769;49.864;8.656;2023-11-19T05:30:15;5.87;;;5.27;;
5493;SDS011;2769;49.864;8.656;2023-11-19T05:33:03;6.27;;;5.77;;
5493;SDS011;2769;49.864;8.656;2023-11-19T05:35:50;6.03;;;5.53;;
5493;SDS011;2769;49.864;8.656;2023-11-19T05:38:36;5.47;;;5.00;;
5493;SDS011;2769;49.864;8.656;2023-11-19T05:41:23;6.13;;;5.53;;
5493;SDS011;2769;49.864;8.656;2023-11-19T05:44:09;7.03;;;6.40;;
5493;SDS011;2769;49.864;8.656;2023-11-19T05:46:55;6.43;;;5.83;;
5493;SDS011;2769;49.864;8.656;2023-11-19T05:49:44;5.70;;;5.30;;
5493;SDS011;2769;49.864;8.656;2023-11-19T05:52:30;5.30;;;4.80;;
5493;SDS011;2769;49.864;8.656;2023-11-19T05:55:19;5.67;;;4.57;;
5493;SDS011;2769;49.864;8.656;2023-11-19T05:58:05;5.17;;;4.60;;
5493;SDS011;2769;49.864;8.656;2023-11-19T06:00:56;5.40;;;5.00;;
5493;SDS011;2769;49.864;8.656;2023-11-19T06:03:46;5.53;;;4.40;;
5493;SDS011;2769;49.864;8.656;2023-11-19T06:06:37;8.37;;;4.60;;
5493;SDS011;2769;49.864;8.656;2023-11-19T06:09:24;8.50;;;4.90;;
5493;SDS011;2769;49.864;8.656;2023-11-19T06:12:11;5.60;;;4.43;;
5493;SDS011;2769;49.864;8.656;2023-11-19T06:14:59;8.17;;;5.13;;
5493;SDS011;2769;49.864;8.656;2023-11-19T06:17:46;5.50;;;5.07;;
5493;SDS011;2769;49.864;8.656;2023-11-19T06:20:33;4.60;;;4.20;;
5493;SDS011;2769;49.864;8.656;2023-11-19T06:23:24;5.30;;;4.80;;
5493;SDS011;2769;49.864;8.656;2023-11-19T06:26:10;5.40;;;4.90;;
5493;SDS011;2769;49.864;8.656;2023-11-19T06:28:57;5.83;;;5.30;;
5493;SDS011;2769;49.864;8.656;2023-11-19T06:31:43;5.30;;;4.90;;
5493;SDS011;2769;49.864;8.656;2023-11-19T06:34:29;10.13;;;6.10;;
5493;SDS011;2769;49.864;8.656;2023-11-19T06:37:18;7.80;;;6.80;;
5493;SDS011;2769;49.864;8.656;2023-11-19T06:40:07;9.00;;;6.57;;
5493;SDS011;2769;49.864;8.656;2023-11-19T06:42:54;11.23;;;7.30;;
5493;SDS011;2769;49.864;8.656;2023-11-19T06:45:41;6.60;;;6.00;;
5493;SDS011;2769;49.864;8.656;2023-11-19T06:48:27;7.70;;;7.00;;
5493;SDS011;2769;49.864;8.656;2023-11-19T06:51:14;6.27;;;5.77;;
5493;SDS011;2769;49.864;8.656;2023-11-19T06:54:01;6.63;;;6.00;;
5493;SDS011;2769;49.864;8.656;2023-11-19T06:56:49;8.20;;;6.20;;
5493;SDS011;2769;49.864;8.656;2023-11-19T06:59:35;6.47;;;5.87;;
5493;SDS011;2769;49.864;8.656;2023-11-19T07:02:22;6.70;;;6.00;;
5493;SDS011;2769;49.864;8.656;2023-11-19T07:05:12;10.30;;;6.60;;
5493;SDS011;2769;49.864;8.656;2023-11-19T07:07:58;12.53;;;6.87;;
5493;SDS011;2769;49.864;8.656;2023-11-19T07:10:46;8.70;;;6.80;;
5493;SDS011;2769;49.864;8.656;2023-11-19T07:13:35;9.17;;;7.30;;
5493;SDS011;2769;49.864;8.656;2023-11-19T07:16:21;7.80;;;7.10;;
5493;SDS011;2769;49.864;8.656;2023-11-19T07:19:08;7.53;;;6.63;;
5493;SDS011;2769;49.864;8.656;2023-11-19T07:21:54;11.03;;;7.10;;
5493;SDS011;2769;49.864;8.656;2023-11-19T07:24:41;7.90;;;7.10;;
5493;SDS011;2769;49.864;8.656;2023-11-19T07:27:27;8.77;;;6.73;;
5493;SDS011;2769;49.864;8.656;2023-11-19T07:30:15;6.17;;;5.50;;
5493;SDS011;2769;49.864;8.656;2023-11-19T07:33:02;8.37;;;5.70;;
5493;SDS011;2769;49.864;8.656;2023-11-19T07:35:50;4.80;;;4.50;;
5493;SDS011;2769;49.864;8.656;2023-11-19T07:38:37;4.90;;;4.40;;
5493;SDS011;2769;49.864;8.656;2023-11-19T07:41:24;4.87;;;4.27;;
5493;SDS011;2769;49.864;8.656;2023-11-19T07:44:11;5.40;;;4.10;;
5493;SDS011;2769;49.864;8.656;2023-11-19T07:46:59;8.77;;;4.53;;
5493;SDS011;2769;49.864;8.656;2023-11-19T07:49:45;4.00;;;3.60;;
5493;SDS011;2769;49.864;8.656;2023-11-19T07:52:33;3.60;;;3.27;;
5493;SDS011;2769;49.864;8.656;2023-11-19T07:55:19;7.30;;;3.87;;
5493;SDS011;2769;49.864;8.656;2023-11-19T07:58:06;3.40;;;3.20;;
5493;SDS011;2769;49.864;8.656;2023-11-19T08:00:52;3.93;;;3.63;;
5493;SDS011;2769;49.864;8.656;2023-11-19T08:03:40;4.43;;;3.20;;
5493;SDS011;2769;49.864;8.656;2023-11-19T08:06:43;4.40;;;4.10;;
5493;SDS011;2769;49.864;8.656;2023-11-19T08:09:30;4.20;;;3.90;;
5493;SDS011;2769;49.864;8.656;2023-11-19T08:12:16;5.50;;;3.80;;
5493;SDS011;2769;49.864;8.656;2023-11-19T08:15:03;4.33;;;4.03;;
5493;SDS011;2769;49.864;8.656;2023-11-19T08:17:51;7.30;;;4.03;;
5493;SDS011;2769;49.864;8.656;2023-11-19T08:20:39;4.07;;;3.77;;
5493;SDS011;2769;49.864;8.656;2023-11-19T08:23:28;3.90;;;3.60;;
5493;SDS011;2769;49.864;8.656;2023-11-19T08:26:15;3.53;;;3.23;;
5493;SDS011;2769;49.864;8.656;2023-11-19T08:29:05;5.67;;;3.23;;
5493;SDS011;2769;49.864;8.656;2023-11-19T08:31:52;5.70;;;4.03;;
5493;SDS011;2769;49.864;8.656;2023-11-19T08:34:38;4.77;;;3.27;;
5493;SDS011;2769;49.864;8.656;2023-11-19T08:37:27;5.33;;;3.37;;
5493;SDS011;2769;49.864;8.656;2023-11-19T08:40:13;3.03;;;2.80;;
5493;SDS011;2769;49.864;8.656;2023-11-19T08:43:00;3.70;;;3.27;;
5493;SDS011;2769;49.864;8.656;2023-11-19T08:45:47;3.17;;;2.97;;
5493;SDS011;2769;49.864;8.656;2023-11-19T08:48:33;3.27;;;3.03;;
5493;SDS011;2769;49.864;8.656;2023-11-19T08:51:20;5.13;;;3.47;;
5493;SDS011;2769;49.864;8.656;2023-11-19T08:54:08;4.23;;;3.67;;
5493;SDS011;2769;49.864;8.656;2023-11-19T08:56:54;7.80;;;3.30;;
5493;SDS011;2769;49.864;8.656;2023-11-19T08:59:40;5.87;;;4.03;;
5493;SDS011;2769;49.864;8.656;2023-11-19T09:02:27;6.40;;;3.70;;
5493;SDS011;2769;49.864;8.656;2023-11-19T09:05:14;9.93;;;3.60;;
5493;SDS011;2769;49.864;8.656;2023-11-19T09:08:01;9.50;;;3.43;;
5493;SDS011;2769;49.864;8.656;2023-11-19T09:10:50;4.57;;;3.57;;
5493;SDS011;2769;49.864;8.656;2023-11-19T09:13:37;5.80;;;3.20;;
5493;SDS011;2769;49.864;8.656;2023-11-19T09:16:23;6.17;;;3.30;;
5493;SDS011;2769;49.864;8.656;2023-11-19T09:19:10;3.00;;;2.80;;
5493;SDS011;2769;49.864;8.656;2023-11-19T09:21:56;6.23;;;3.37;;
5493;SDS011;2769;49.864;8.656;2023-11-19T09:24:43;4.20;;;3.10;;
5493;SDS011;2769;49.864;8.656;2023-11-19T09:27:31;2.87;;;2.57;;
5493;SDS011;2769;49.864;8.656;2023-11-19T09:30:18;7.00;;;2.50;;
5493;SDS011;2769;49.864;8.656;2023-11-19T09:33:04;2.70;;;2.50;;
5493;SDS011;2769;49.864;8.656;2023-11-19T09:35:51;2.30;;;2.20;;
5493;SDS011;2769;49.864;8.656;2023-11-19T09:38:37;5.30;;;2.70;;
5493;SDS011;2769;49.864;8.656;2023-11-19T09:41:24;5.30;;;2.33;;
5493;SDS011;2769;49.864;8.656;2023-11-19T09:44:14;3.73;;;2.60;;
5493;SDS011;2769;49.864;8.656;2023-11-19T09:47:03;6.47;;;2.20;;
5493;SDS011;2769;49.864;8.656;2023-11-19T09:49:50;2.50;;;2.30;;
5493;SDS011;2769;49.864;8.656;2023-11-19T09:52:39;2.10;;;1.93;;
5493;SDS011;2769;49.864;8.656;2023-11-19T09:55:25;2.67;;;2.43;;
5493;SDS011;2769;49.864;8.656;2023-11-19T09:58:12;2.80;;;2.60;;
5493;SDS011;2769;49.864;8.656;2023-11-19T10:01:02;3.30;;;3.00;;
5493;SDS011;2769;49.864;8.656;2023-11-19T10:03:55;5.30;;;2.87;;
5493;SDS011;2769;49.864;8.656;2023-11-19T10:06:42;2.80;;;2.57;;
5493;SDS011;2769;49.864;8.656;2023-11-19T10:09:29;4.63;;;3.00;;
5493;SDS011;2769;49.864;8.656;2023-11-19T10:12:15;5.03;;;2.87;;
5493;SDS011;2769;49.864;8.656;2023-11-19T10:15:03;2.87;;;2.60;;
5493;SDS011;2769;49.864;8.656;2023-11-19T10:17:52;4.50;;;2.40;;
5493;SDS011;2769;49.864;8.656;2023-11-19T10:20:41;2.93;;;2.73;;
5493;SDS011;2769;49.864;8.656;2023-11-19T10:23:29;6.37;;;2.80;;
5493;SDS011;2769;49.864;8.656;2023-11-19T10:26:15;2.40;;;2.20;;
5493;SDS011;2769;49.864;8.656;2023-11-19T10:29:02;2.50;;;2.30;;
5493;SDS011;2769;49.864;8.656;2023-11-19T10:31:55;2.50;;;2.40;;
5493;SDS011;2769;49.864;8.656;2023-11-19T10:35:07;3.83;;;3.00;;
5493;SDS011;2769;49.864;8.656;2023-11-19T10:37:53;8.40;;;2.90;;
5493;SDS011;2769;49.864;8.656;2023-11-19T10:40:40;3.03;;;2.63;;
5493;SDS011;2769;49.864;8.656;2023-11-19T10:43:26;2.93;;;2.73;;
5493;SDS011;2769;49.864;8.656;2023-11-19T10:46:13;7.27;;;2.60;;
5493;SDS011;2769;49.864;8.656;2023-11-19T10:49:06;3.43;;;2.50;;
5493;SDS011;2769;49.864;8.656;2023-11-19T10:51:53;3.57;;;2.43;;
5493;SDS011;2769;49.864;8.656;2023-11-19T10:54:42;5.10;;;1.90;;
5493;SDS011;2769;49.864;8.656;2023-11-19T10:57:30;7.37;;;1.90;;
5493;SDS011;2769;49.864;8.656;2023-11-19T11:00:20;2.70;;;2.33;;
5493;SDS011;2769;49.864;8.656;2023-11-19T11:03:09;3.77;;;2.53;;
5493;SDS011;2769;49.864;8.656;2023-11-19T11:05:57;6.47;;;2.70;;
5493;SDS011;2769;49.864;8.656;2023-11-19T11:08:45;7.40;;;3.10;;
5493;SDS011;2769;49.864;8.656;2023-11-19T11:11:32;6.77;;;2.73;;
5493;SDS011;2769;49.864;8.656;2023-11-19T11:14:20;5.00;;;2.47;;
5493;SDS011;2769;49.864;8.656;2023-11-19T11:17:07;5.10;;;1.80;;
5493;SDS011;2769;49.864;8.656;2023-11-19T11:19:54;2.10;;;1.70;;
5493;SDS011;2769;49.864;8.656;2023-11-19T11:22:49;10.87;;;2.90;;
5493;SDS011;2769;49.864;8.656;2023-11-19T11:25:47;3.40;;;1.90;;
5493;SDS011;2769;49.864;8.656;2023-11-19T11:28:40;4.37;;;1.90;;
5493;SDS011;2769;49.864;8.656;2023-11-19T11:31:31;2.50;;;1.70;;
5493;SDS011;2769;49.864;8.656;2023-11-19T11:34:38;3.80;;;1.13;;
5493;SDS011;2769;49.864;8.656;2023-11-19T11:37:31;7.40;;;1.80;;
5493;SDS011;2769;49.864;8.656;2023-11-19T11:40:19;7.10;;;1.47;;
5493;SDS011;2769;49.864;8.656;2023-11-19T11:43:07;2.30;;;1.30;;
5493;SDS011;2769;49.864;8.656;2023-11-19T11:49:41;3.77;;;1.77;;
5493;SDS011;2769;49.864;8.656;2023-11-19T11:52:27;2.20;;;1.60;;
5493;SDS011;2769;49.864;8.656;2023-11-19T11:55:15;1.97;;;1.50;;
5493;SDS011;2769;49.864;8.656;2023-11-19T11:58:01;4.23;;;1.70;;
5493;SDS011;2769;49.864;8.656;2023-11-19T12:00:51;4.93;;;2.03;;
5493;SDS011;2769;49.864;8.656;2023-11-19T12:03:38;2.00;;;1.47;;
5493;SDS011;2769;49.864;8.656;2023-11-19T12:06:26;2.40;;;1.40;;
5493;SDS011;2769;49.864;8.656;2023-11-19T12:09:13;4.43;;;1.37;;
5493;SDS011;2769;49.864;8.656;2023-11-19T12:12:18;7.33;;;2.20;;
5493;SDS011;2769;49.864;8.656;2023-11-19T12:15:07;3.60;;;2.03;;
5493;SDS011;2769;49.864;8.656;2023-11-19T12:17:57;3.50;;;1.83;;
5493;SDS011;2769;49.864;8.656;2023-11-19T12:20:44;2.70;;;1.57;;
5493;SDS011;2769;49.864;8.656;2023-11-19T12:23:30;4.10;;;1.90;;
5493;SDS011;2769;49.864;8.656;2023-11-19T12:26:21;2.97;;;1.67;;
5493;SDS011;2769;49.864;8.656;2023-11-19T12:29:08;4.40;;;1.60;;
5493;SDS011;2769;49.864;8.656;2023-11-19T12:31:54;1.97;;;1.50;;
5493;SDS011;2769;49.864;8.656;2023-11-19T12:35:00;5.03;;;1.50;;
5493;SDS011;2769;49.864;8.656;2023-11-19T12:37:47;4.77;;;1.20;;
5493;SDS011;2769;49.864;8.656;2023-11-19T12:40:34;4.30;;;1.50;;
5493;SDS011;2769;49.864;8.656;2023-11-19T12:43:21;7.90;;;1.70;;
5493;SDS011;2769;49.864;8.656;2023-11-19T12:46:16;4.47;;;1.47;;
5493;SDS011;2769;49.864;8.656;2023-11-19T12:49:04;5.43;;;1.20;;
5493;SDS011;2769;49.864;8.656;2023-11-19T12:51:52;7.13;;;1.63;;
5493;SDS011;2769;49.864;8.656;2023-11-19T12:54:39;6.50;;;1.40;;
5493;SDS011;2769;49.864;8.656;2023-11-19T12:57:35;9.10;;;1.63;;
5493;SDS011;2769;49.864;8.656;2023-11-19T13:00:24;5.03;;;1.53;;
5493;SDS011;2769;49.864;8.656;2023-11-19T13:03:11;8.60;;;1.20;;
5493;SDS011;2769;49.864;8.656;2023-11-19T13:06:01;11.43;;;1.73;;
5493;SDS011;2769;49.864;8.656;2023-11-19T13:08:50;4.10;;;1.50;;
5493;SDS011;2769;49.864;8.656;2023-11-19T13:11:40;4.97;;;1.50;;
5493;SDS011;2769;49.864;8.656;2023-11-19T13:14:35;5.17;;;1.40;;
5493;SDS011;2769;49.864;8.656;2023-11-19T13:17:22;6.03;;;1.73;;
5493;SDS011;2769;49.864;8.656;2023-11-19T13:20:09;6.23;;;1.37;;
5493;SDS011;2769;49.864;8.656;2023-11-19T13:23:00;6.07;;;1.73;;
5493;SDS011;2769;49.864;8.656;2023-11-19T13:25:48;4.13;;;1.60;;
5493;SDS011;2769;49.864;8.656;2023-11-19T13:28:35;6.60;;;1.87;;
5493;SDS011;2769;49.864;8.656;2023-11-19T13:31:21;3.17;;;1.33;;
5493;SDS011;2769;49.864;8.656;2023-11-19T13:34:08;7.03;;;1.60;;
5493;SDS011;2769;49.864;8.656;2023-11-19T13:36:55;6.33;;;1.33;;
5493;SDS011;2769;49.864;8.656;2023-11-19T13:39:41;4.57;;;1.43;;
5493;SDS011;2769;49.864;8.656;2023-11-19T13:42:30;3.90;;;1.30;;
5493;SDS011;2769;49.864;8.656;2023-11-19T13:45:16;6.93;;;1.23;;
5493;SDS011;2769;49.864;8.656;2023-11-19T13:48:05;6.60;;;1.80;;
5493;SDS011;2769;49.864;8.656;2023-11-19T13:50:52;5.80;;;1.67;;
5493;SDS011;2769;49.864;8.656;2023-11-19T13:53:39;10.60;;;1.73;;
5493;SDS011;2769;49.864;8.656;2023-11-19T13:56:28;8.60;;;3.00;;
5493;SDS011;2769;49.864;8.656;2023-11-19T13:59:16;4.60;;;1.80;;
5493;SDS011;2769;49.864;8.656;2023-11-19T14:02:02;4.10;;;1.50;;
5493;SDS011;2769;49.864;8.656;2023-11-19T14:04:52;4.53;;;1.77;;
5493;SDS011;2769;49.864;8.656;2023-11-19T14:07:39;6.93;;;2.00;;
5493;SDS011;2769;49.864;8.656;2023-11-19T14:10:25;4.90;;;1.90;;
5493;SDS011;2769;49.864;8.656;2023-11-19T14:13:12;9.33;;;1.80;;
5493;SDS011;2769;49.864;8.656;2023-11-19T14:16:02;4.07;;;1.60;;
5493;SDS011;2769;49.864;8.656;2023-11-19T14:18:50;4.13;;;1.60;;
5493;SDS011;2769;49.864;8.656;2023-11-19T14:21:36;7.63;;;2.23;;
5493;SDS011;2769;49.864;8.656;2023-11-19T14:24:23;8.93;;;1.57;;
5493;SDS011;2769;49.864;8.656;2023-11-19T14:27:10;9.07;;;2.00;;
5493;SDS011;2769;49.864;8.656;2023-11-19T14:29:57;6.27;;;1.67;;
5493;SDS011;2769;49.864;8.656;2023-11-19T14:32:45;5.60;;;1.93;;
5493;SDS011;2769;49.864;8.656;2023-11-19T14:35:33;6.60;;;1.80;;
5493;SDS011;2769;49.864;8.656;2023-11-19T14:38:20;6.77;;;2.13;;
5493;SDS011;2769;49.864;8.656;2023-11-19T14:41:07;8.13;;;1.50;;
5493;SDS011;2769;49.864;8.656;2023-11-19T14:43:53;7.60;;;1.80;;
5493;SDS011;2769;49.864;8.656;2023-11-19T14:46:39;3.53;;;1.63;;
5493;SDS011;2769;49.864;8.656;2023-11-19T14:49:28;7.07;;;1.63;;
5493;SDS011;2769;49.864;8.656;2023-11-19T14:52:15;10.10;;;1.73;;
5493;SDS011;2769;49.864;8.656;2023-11-19T14:55:02;3.70;;;1.63;;
5493;SDS011;2769;49.864;8.656;2023-11-19T14:57:49;8.57;;;1.70;;
5493;SDS011;2769;49.864;8.656;2023-11-19T15:00:49;5.73;;;1.63;;
5493;SDS011;2769;49.864;8.656;2023-11-19T15:03:36;4.10;;;1.47;;
5493;SDS011;2769;49.864;8.656;2023-11-19T15:06:27;9.10;;;2.03;;
5493;SDS011;2769;49.864;8.656;2023-11-19T15:09:16;3.43;;;1.13;;
5493;SDS011;2769;49.864;8.656;2023-11-19T15:12:03;6.37;;;1.93;;
5493;SDS011;2769;49.864;8.656;2023-11-19T15:14:54;6.33;;;1.50;;
5493;SDS011;2769;49.864;8.656;2023-11-19T15:17:42;5.33;;;1.37;;
5493;SDS011;2769;49.864;8.656;2023-11-19T15:20:28;6.30;;;1.70;;
5493;SDS011;2769;49.864;8.656;2023-11-19T15:23:16;5.00;;;1.50;;
5493;SDS011;2769;49.864;8.656;2023-11-19T15:26:04;9.40;;;1.73;;
5493;SDS011;2769;49.864;8.656;2023-11-19T15:28:52;5.73;;;1.57;;
5493;SDS011;2769;49.864;8.656;2023-11-19T15:31:41;5.90;;;1.80;;
5493;SDS011;2769;49.864;8.656;2023-11-19T15:34:28;4.43;;;1.70;;
5493;SDS011;2769;49.864;8.656;2023-11-19T15:37:14;5.70;;;1.60;;
5493;SDS011;2769;49.864;8.656;2023-11-19T15:40:03;6.40;;;2.07;;
5493;SDS011;2769;49.864;8.656;2023-11-19T15:42:53;6.10;;;1.73;;
5493;SDS011;2769;49.864;8.656;2023-11-19T15:45:42;7.67;;;2.00;;
5493;SDS011;2769;49.864;8.656;2023-11-19T15:48:29;10.50;;;2.37;;
5493;SDS011;2769;49.864;8.656;2023-11-19T15:51:15;6.07;;;1.50;;
5493;SDS011;2769;49.864;8.656;2023-11-19T15:54:03;3.13;;;1.40;;
5493;SDS011;2769;49.864;8.656;2023-11-19T15:56:51;8.70;;;1.80;;
5493;SDS011;2769;49.864;8.656;2023-11-19T15:59:37;8.27;;;2.00;;
5493;SDS011;2769;49.864;8.656;2023-11-19T16:02:24;2.93;;;1.27;;
5493;SDS011;2769;49.864;8.656;2023-11-19T16:05:11;6.10;;;1.37;;
5493;SDS011;2769;49.864;8.656;2023-11-19T16:07:59;5.30;;;1.90;;
5493;SDS011;2769;49.864;8.656;2023-11-19T16:10:46;5.27;;;1.80;;
5493;SDS011;2769;49.864;8.656;2023-11-19T16:13:35;5.43;;;2.00;;
5493;SDS011;2769;49.864;8.656;2023-11-19T16:16:21;2.13;;;1.80;;
5493;SDS011;2769;49.864;8.656;2023-11-19T16:19:08;5.50;;;2.10;;
5493;SDS011;2769;49.864;8.656;2023-11-19T16:21:54;3.60;;;1.63;;
5493;SDS011;2769;49.864;8.656;2023-11-19T16:24:41;5.93;;;1.90;;
5493;SDS011;2769;49.864;8.656;2023-11-19T16:27:29;6.67;;;1.60;;
5493;SDS011;2769;49.864;8.656;2023-11-19T16:30:17;7.37;;;2.27;;
5493;SDS011;2769;49.864;8.656;2023-11-19T16:33:04;8.17;;;2.53;;
5493;SDS011;2769;49.864;8.656;2023-11-19T16:36:02;5.13;;;1.67;;
5493;SDS011;2769;49.864;8.656;2023-11-19T16:38:49;5.40;;;1.90;;
5493;SDS011;2769;49.864;8.656;2023-11-19T16:41:35;11.67;;;1.93;;
5493;SDS011;2769;49.864;8.656;2023-11-19T16:44:27;5.50;;;1.60;;
5493;SDS011;2769;49.864;8.656;2023-11-19T16:47:16;6.27;;;1.80;;
5493;SDS011;2769;49.864;8.656;2023-11-19T16:50:03;3.47;;;1.60;;
5493;SDS011;2769;49.864;8.656;2023-11-19T16:52:50;4.23;;;1.70;;
5493;SDS011;2769;49.864;8.656;2023-11-19T16:55:37;7.27;;;2.33;;
5493;SDS011;2769;49.864;8.656;2023-11-19T16:58:23;6.03;;;1.80;;
5493;SDS011;2769;49.864;8.656;2023-11-19T17:01:10;5.10;;;1.83;;
5493;SDS011;2769;49.864;8.656;2023-11-19T17:03:58;5.23;;;1.83;;
5493;SDS011;2769;49.864;8.656;2023-11-19T17:06:44;7.53;;;2.30;;
5493;SDS011;2769;49.864;8.656;2023-11-19T17:09:32;3.90;;;2.10;;
5493;SDS011;2769;49.864;8.656;2023-11-19T17:12:18;6.50;;;2.20;;
5493;SDS011;2769;49.864;8.656;2023-11-19T17:15:10;5.80;;;2.10;;
5493;SDS011;2769;49.864;8.656;2023-11-19T17:17:57;3.10;;;2.20;;
5493;SDS011;2769;49.864;8.656;2023-11-19T17:20:45;8.87;;;2.20;;
5493;SDS011;2769;49.864;8.656;2023-11-19T17:23:32;7.23;;;2.17;;
5493;SDS011;2769;49.864;8.656;2023-11-19T17:26:18;2.37;;;1.50;;